x

Texas Tower #4 - 75 Nm East Of Long Beach, Nj (44066) Wave Buoy

8:50am - Thu 20th Jul 2017 All times are EDT. -4 hours from GMT.

  • Sig Wave height 3.0ft
  • Swell Direction
  • Peak Period 5s
  • Average Period 5s
  • Wind
    11mph, 13mph gusts
  • Sea Temp 78°f
  • Air Temp 79°f
  • Sea Pressure 1015.2mb
  • Texas Tower #4 - 75 Nm East Of Long Beach, Nj
  • Texas Tower #4 - 75 Nm East Of Long Beach, Nj

More Historic Weather Station data

Upgrade to MSW Pro to gain access to the past 30 days of data for over 8000 Wavebouys and Weather Stations around the globe.

Join Pro

Comparision Forecast

View Surf forecast
   
Thu 07/20 8:50am 3ft 5s 5s 11 13 mph 1015.2mb 78f 79f
7:50am 3.5ft 5s 5s 11 13 mph 1015.2mb 78f 79f
6:50am 3.5ft 4s 5s 11 13 mph 1014.7mb 78f 79f
5:50am 3.5ft 5s 5s 13 16 mph 1014.7mb 78f 79f
4:50am 3ft 4s 5s 16 18 mph 1014.6mb 78f 79f
3:50am 3.5ft 15s 5s 13 16 mph 1014.4mb 78f 78f
2:50am 3ft 7s 4s 16 18 mph 1014.8mb 78f 79f
1:50am 3ft 15s 5s 16 18 mph 1015.2mb 78f 78f
12:50am 3ft 4s 4s 18 20 mph 1015.4mb 78f 79f
Wed 07/19 11:50pm 3ft 15s 4s 16 20 mph 1015.5mb 78f 78f
10:50pm 3ft 4s 4s 16 18 mph 1015.8mb 79f 79f
9:50pm 3ft 7s 4s 16 18 mph 1015.9mb 79f 79f
8:50pm 3ft 15s 4s 16 18 mph 1015.7mb 79f 79f
7:50pm 3ft 4s 4s 16 18 mph 1015.2mb 79f 79f
6:50pm 3ft 8s 4s 13 18 mph 1015.2mb 79f 79f
5:50pm 3ft 15s 5s 16 18 mph 1015.2mb 80f 79f
4:50pm 2.5ft 16s 5s 16 18 mph 1015.3mb 80f 79f
3:50pm 2.5ft 12s 5s 13 16 mph 1016mb 80f 79f
2:50pm 2.5ft 6s 5s 13 16 mph 1016.6mb 80f 78f
1:50pm 2.5ft 16s 6s 11 13 mph 1016.9mb 80f 78f
12:50pm 2.5ft 13s 6s 9 11 mph 1017.4mb 79f 78f
11:50am 2.5ft 16s 6s 7 9 mph 1017.8mb 79f 78f
10:50am 2.5ft 16s 6s 9 9 mph 1018mb 79f 77f
9:50am 2.5ft 16s 6s 7 9 mph 1017.9mb 78f 77f
8:50am 2.5ft 16s 5s 7 9 mph 1018mb 78f 77f
7:50am 2.5ft 9s 5s 9 11 mph 1018.1mb 78f 77f
6:50am 2.5ft 16s 5s 11 13 mph 1017.8mb 78f 77f
5:50am 2.5ft 16s 6s 11 13 mph 1017.8mb 78f 77f
4:50am 2.5ft 16s 5s 9 9 mph 1018mb 77f 77f
3:50am 2.5ft 9s 5s 9 11 mph 1018.1mb 77f 77f
2:50am 2.5ft 8s 5s 11 13 mph 1018.1mb 78f 77f
1:50am 2.5ft 8s 5s 9 11 mph 1018.1mb 78f 77f
12:50am 2.5ft 13s 5s 9 9 mph 1018.4mb 78f 78f
Tue 07/18 11:50pm 2.5ft 8s 6s 7 9 mph 1018.5mb 79f 78f
10:50pm 2.5ft 7s 6s 9 11 mph 1018.2mb 79f 78f
9:50pm 2.5ft 16s 6s 7 9 mph 1018.7mb 79f 77f
8:50pm 2.5ft 8s 6s 9 9 mph 1018.5mb 79f 77f
7:50pm 2.5ft 9s 6s 7 11 mph 1018.4mb 79f 77f
6:50pm 2.5ft 9s 6s 9 11 mph 1018.3mb 79f 77f
5:50pm 2.5ft 8s 6s 7 9 mph 1018.1mb 80f 77f
4:50pm 2.5ft 8s 6s 7 7 mph 1018.1mb 80f 77f
3:50pm 3ft 9s 6s 4 7 mph 1018.2mb 79f 77f
2:50pm 2.5ft 5s 5s 7 7 mph 1018.5mb 79f 77f
1:50pm 3ft 10s 5s 7 7 mph 1018.3mb 78f 76f
11:50am 2.5ft 14s 5s 7 9 mph 1019.5mb 77f 76f
10:50am 2.5ft 7s 6s 7 9 mph 1019.6mb 77f 75f
9:50am 2.5ft 9s 5s 7 7 mph 1019.7mb 76f 75f
8:50am 2.5ft 8s 5s 9 11 mph 1019.4mb 76f 75f
7:50am 2.5ft 8s 5s 7 9 mph 1018.9mb 76f 75f
6:50am 2.5ft 9s 5s 7 9 mph 1018.6mb 76f 75f
5:50am 2.5ft 8s 5s 4 7 mph 1018.6mb 76f 76f
4:50am 2.5ft 9s 5s 7 7 mph 1018.4mb 76f 76f
3:50am 2.5ft 8s 5s 9 11 mph 1018.1mb 77f 76f
2:50am 2.5ft 8s 5s 11 13 mph 1017.8mb 77f 76f
1:50am 2.5ft 9s 5s 9 11 mph 1017.7mb 77f 76f
12:50am 2.5ft 14s 6s 9 11 mph 1017.9mb 77f 76f
Mon 07/17 11:50pm 2.5ft 8s 6s 9 11 mph 1018.4mb 77f 76f
10:50pm 2.5ft 6s 6s 9 11 mph 1018.5mb 77f 76f
9:50pm 2.5ft 9s 6s 7 9 mph 1018.9mb 77f 76f
8:50pm 2.5ft 8s 6s 7 9 mph 1018.8mb 77f 76f
7:50pm 2.5ft 8s 7s 2 4 mph 1018mb 77f 76f
6:50pm 2.5ft 9s 6s 4 7 mph 1017.8mb 77f 76f
5:50pm 2.5ft 8s 6s 7 7 mph 1017.2mb 76f 76f
4:50pm 2.5ft 8s 6s 7 7 mph 1017.2mb 76f 76f
3:50pm 2.5ft 8s 6s 9 11 mph 1017.2mb 76f 76f
2:50pm 2.5ft 8s 6s 11 11 mph 1017.6mb 76f 76f
1:50pm 2.5ft 8s 7s 9 9 mph 1017.6mb 76f 76f
12:50pm 2ft 7s 6s 9 9 mph 1017.7mb 76f 76f
11:50am 2.5ft 8s 6s 7 9 mph 1017.9mb 76f 76f
10:50am 2.5ft 8s 6s 9 11 mph 1018.1mb 76f 76f
9:50am 2.5ft 15s 6s 11 11 mph 1017.9mb 77f 75f
8:50am 2.5ft 8s 6s 9 11 mph 1017.9mb 76f 76f
7:50am 2.5ft 8s 6s 7 9 mph 1017.3mb 77f 75f
6:50am 2.5ft 8s 6s 4 4 mph 1017.3mb 77f 75f
5:50am 2.5ft 8s 6s 4 7 mph 1016.6mb 77f 76f
4:50am 2.5ft 9s 7s 4 7 mph 1016.1mb 77f 76f
3:50am 2ft 9s 6s 2 4 mph 1015.9mb 76f 76f
2:50am 2ft 8s 6s 4 4 mph 1015.9mb 77f 76f
1:50am 2.5ft 8s 6s 4 7 mph 1015.9mb 76f 76f
12:50am 2.5ft 8s 6s 4 7 mph 1015.9mb 76f 76f
Sun 07/16 11:50pm 2.5ft 8s 6s 4 4 mph 1016.2mb 76f 76f
10:50pm 2.5ft 9s 6s 4 4 mph 1015.9mb 76f 76f
9:50pm 2ft 6s 5s 7 7 mph 1015.7mb 76f 76f
8:50pm 2.5ft 8s 6s 4 4 mph 1015.1mb 76f 77f
7:50pm 2.5ft 8s 5s 2 4 mph 1014.8mb 77f 77f
6:50pm 2.5ft 8s 6s 2 2 mph 1014.5mb 77f 78f
5:50pm 2.5ft 6s 5s 2 4 mph 1014.1mb 78f 77f
4:50pm 2.5ft 9s 6s 2 4 mph 1014.3mb 80f 77f
3:50pm 2.5ft 7s 5s 2 4 mph 1014.4mb 80f 76f
2:50pm 2.5ft 8s 5s 2 2 mph 1014.4mb 80f 76f